createdAt,value
2017-11-17T00:02:19.881Z,14.50
2017-11-17T00:04:48.979Z,14.50
2017-11-17T00:07:18.037Z,14.50
2017-11-17T00:09:46.349Z,15.03
2017-11-17T00:12:14.653Z,14.37
2017-11-17T00:14:42.966Z,15.40
2017-11-17T00:17:11.290Z,13.27
2017-11-17T00:19:40.373Z,14.87
2017-11-17T00:22:09.449Z,14.60
2017-11-17T00:24:37.790Z,13.77
2017-11-17T00:27:06.089Z,15.70
2017-11-17T00:29:35.165Z,15.30
2017-11-17T00:32:03.461Z,14.80
2017-11-17T00:34:31.774Z,16.20
2017-11-17T00:37:00.845Z,17.20
2017-11-17T00:39:29.474Z,17.90
2017-11-17T00:41:57.781Z,18.63
2017-11-17T00:44:26.102Z,16.80
2017-11-17T00:46:54.425Z,19.27
2017-11-17T00:49:22.738Z,20.90
2017-11-17T00:51:51.050Z,19.13
2017-11-17T00:54:20.133Z,22.27
2017-11-17T00:56:48.446Z,19.87
2017-11-17T00:59:16.762Z,20.47
2017-11-17T01:01:45.073Z,23.07
2017-11-17T01:04:14.162Z,24.53
2017-11-17T01:06:43.229Z,21.57
2017-11-17T01:09:11.549Z,23.20
2017-11-17T01:11:40.610Z,23.97
2017-11-17T01:14:08.919Z,24.17
2017-11-17T01:16:37.981Z,24.07
2017-11-17T01:19:06.296Z,28.27
2017-11-17T01:21:35.418Z,29.90
2017-11-17T01:24:03.755Z,25.23
2017-11-17T01:26:32.818Z,27.63
2017-11-17T01:29:01.133Z,29.70
2017-11-17T01:31:30.204Z,28.93
2017-11-17T01:33:58.510Z,32.83
2017-11-17T01:36:27.588Z,28.87
2017-11-17T01:38:55.918Z,30.80
2017-11-17T01:41:24.218Z,34.57
2017-11-17T01:43:52.534Z,32.77
2017-11-17T01:46:21.605Z,33.60
2017-11-17T01:48:49.938Z,31.77
2017-11-17T01:51:18.255Z,35.37
2017-11-17T01:53:46.561Z,35.27
2017-11-17T01:56:15.634Z,35.63
2017-11-17T01:58:43.935Z,38.37
2017-11-17T02:01:12.999Z,41.93
2017-11-17T02:03:41.302Z,40.27
2017-11-17T02:06:10.365Z,46.43
2017-11-17T02:08:38.687Z,46.30
2017-11-17T02:11:06.990Z,45.20
2017-11-17T02:13:35.313Z,46.90
2017-11-17T02:16:03.601Z,44.63
2017-11-17T02:18:32.674Z,43.10
2017-11-17T02:21:01.000Z,43.53
2017-11-17T02:23:29.316Z,43.27
2017-11-17T02:25:57.655Z,45.70
2017-11-17T02:28:25.966Z,43.63
2017-11-17T02:30:54.276Z,45.80
2017-11-17T02:33:22.574Z,45.57
2017-11-17T02:35:50.896Z,46.80
2017-11-17T02:38:19.206Z,41.90
2017-11-17T02:40:47.519Z,45.53
2017-11-17T02:43:15.844Z,45.27
2017-11-17T02:45:44.192Z,49.47
2017-11-17T02:48:12.494Z,45.87
2017-11-17T02:50:40.820Z,44.73
2017-11-17T02:53:09.142Z,43.73
2017-11-17T02:55:37.455Z,47.97
2017-11-17T02:58:06.547Z,48.50
2017-11-17T03:00:34.866Z,46.47
2017-11-17T03:03:03.174Z,46.10
2017-11-17T03:05:31.626Z,45.23
2017-11-17T03:07:59.933Z,47.80
2017-11-17T03:10:28.250Z,48.10
2017-11-17T03:12:56.571Z,49.87
2017-11-17T03:15:24.887Z,50.73
2017-11-17T03:17:53.191Z,49.27
2017-11-17T03:20:21.503Z,50.17
2017-11-17T03:22:49.828Z,47.13
2017-11-17T03:25:18.909Z,49.37
2017-11-17T03:27:47.214Z,51.43
2017-11-17T03:30:15.545Z,48.33
2017-11-17T03:32:43.852Z,46.83
2017-11-17T03:35:12.936Z,48.90
2017-11-17T03:37:41.254Z,50.30
2017-11-17T03:40:09.567Z,48.70
2017-11-17T03:42:37.870Z,51.97
2017-11-17T03:45:06.197Z,49.90
2017-11-17T03:47:34.498Z,50.83
2017-11-17T03:50:02.811Z,47.80
2017-11-17T03:52:31.893Z,45.77
2017-11-17T03:55:00.253Z,51.70
2017-11-17T03:57:28.558Z,49.07
2017-11-17T03:59:56.869Z,47.23
2017-11-17T04:02:25.188Z,51.33
2017-11-17T04:04:53.497Z,43.50
2017-11-17T04:07:22.569Z,45.60
2017-11-17T04:09:50.889Z,44.67
2017-11-17T04:12:19.243Z,43.80
2017-11-17T04:14:48.313Z,43.33
2017-11-17T04:17:16.623Z,38.77
2017-11-17T04:19:45.711Z,40.93
2017-11-17T04:22:14.787Z,41.23
2017-11-17T04:24:43.107Z,38.63
2017-11-17T04:27:11.402Z,37.10
2017-11-17T04:29:39.710Z,39.30
2017-11-17T04:32:08.034Z,36.30
2017-11-17T04:34:36.351Z,32.30
2017-11-17T04:37:04.665Z,31.30
2017-11-17T04:39:33.750Z,31.57
2017-11-17T04:42:02.041Z,31.50
2017-11-17T04:44:31.118Z,29.63
2017-11-17T04:46:59.436Z,27.73
2017-11-17T04:49:27.759Z,28.80
2017-11-17T04:51:56.092Z,30.10
2017-11-17T04:54:24.406Z,28.47
2017-11-17T04:56:52.734Z,30.93
2017-11-17T04:59:21.052Z,29.47
2017-11-17T05:01:49.369Z,30.90
2017-11-17T05:04:17.673Z,28.60
2017-11-17T05:06:45.999Z,26.57
2017-11-17T05:09:14.302Z,23.93
2017-11-17T05:11:42.624Z,23.57
2017-11-17T05:14:10.923Z,24.50
2017-11-17T05:16:39.232Z,25.60
2017-11-17T05:19:07.578Z,23.67
2017-11-17T05:21:35.910Z,24.30
2017-11-17T05:24:05.004Z,22.50
2017-11-17T05:26:33.335Z,25.00
2017-11-17T05:29:01.642Z,22.83
2017-11-17T05:31:29.953Z,20.30
2017-11-17T05:33:58.271Z,20.43
2017-11-17T05:36:26.612Z,20.50
2017-11-17T05:38:55.006Z,18.93
2017-11-17T05:41:23.330Z,19.73
2017-11-17T05:43:51.642Z,18.13
2017-11-17T05:46:19.950Z,19.57
2017-11-17T05:48:48.347Z,16.80
2017-11-17T05:51:16.692Z,17.17
2017-11-17T05:53:45.034Z,16.93
2017-11-17T05:56:13.346Z,17.60
2017-11-17T05:58:41.646Z,16.60
2017-11-17T06:01:09.956Z,16.63
2017-11-17T06:03:39.073Z,19.17
2017-11-17T06:06:07.388Z,16.70
2017-11-17T06:08:35.690Z,18.67
2017-11-17T06:11:04.027Z,18.93
2017-11-17T06:13:32.325Z,17.10
2017-11-17T06:16:00.647Z,18.33
2017-11-17T06:18:28.962Z,17.13
2017-11-17T06:20:57.291Z,15.83
2017-11-17T06:23:26.361Z,16.50
2017-11-17T06:25:54.687Z,17.27
2017-11-17T06:28:22.999Z,17.13
2017-11-17T06:30:51.310Z,17.70
2017-11-17T06:33:20.396Z,16.67
2017-11-17T06:35:48.713Z,18.77
2017-11-17T06:38:17.029Z,18.43
2017-11-17T06:40:45.354Z,19.20
2017-11-17T06:43:14.419Z,20.23
2017-11-17T06:45:42.742Z,22.03
2017-11-17T06:48:11.051Z,21.53
2017-11-17T06:50:39.380Z,21.17
2017-11-17T06:53:07.691Z,21.73
2017-11-17T06:55:35.994Z,22.07
2017-11-17T06:58:04.294Z,20.43
2017-11-17T07:00:33.382Z,20.87
2017-11-17T07:03:01.690Z,18.47
2017-11-17T07:05:30.786Z,20.73
2017-11-17T07:07:59.847Z,20.47
2017-11-17T07:10:28.186Z,19.30
2017-11-17T07:12:56.499Z,21.00
2017-11-17T07:15:24.814Z,20.43
2017-11-17T07:17:53.879Z,22.70
2017-11-17T07:20:22.187Z,22.47
2017-11-17T07:22:51.262Z,21.03
2017-11-17T07:25:20.341Z,22.17
2017-11-17T07:27:48.662Z,23.20
2017-11-17T07:30:16.975Z,21.50
2017-11-17T07:32:45.302Z,20.50
2017-11-17T07:35:14.402Z,21.40
2017-11-17T07:37:43.484Z,20.80
2017-11-17T07:40:12.560Z,24.83
2017-11-17T07:42:40.878Z,21.07
2017-11-17T07:45:09.187Z,22.80
2017-11-17T07:47:37.503Z,18.77
2017-11-17T07:50:05.825Z,19.00
2017-11-17T07:52:34.135Z,20.83
2017-11-17T07:55:02.497Z,17.27
2017-11-17T07:57:30.799Z,18.67
2017-11-17T07:59:59.108Z,19.23
2017-11-17T08:02:28.190Z,18.00
2017-11-17T08:04:57.263Z,16.40
2017-11-17T08:07:25.645Z,15.10
2017-11-17T08:09:53.953Z,16.77
2017-11-17T08:12:22.283Z,16.33
2017-11-17T08:14:50.602Z,14.40
2017-11-17T08:20:24.146Z,15.23
2017-11-17T08:22:52.450Z,15.40
2017-11-17T08:25:20.751Z,15.10
2017-11-17T08:27:49.077Z,14.57
2017-11-17T08:30:17.383Z,14.63
2017-11-17T08:32:45.695Z,11.67
2017-11-17T08:35:14.003Z,13.67
2017-11-17T08:37:42.320Z,12.60
2017-11-17T08:40:10.641Z,13.60
2017-11-17T08:42:39.723Z,12.00
2017-11-17T08:45:08.045Z,12.97
2017-11-17T08:47:36.372Z,11.80
2017-11-17T08:50:04.676Z,11.47
2017-11-17T08:52:33.756Z,9.50
2017-11-17T08:55:02.063Z,8.80
2017-11-17T08:57:31.026Z,7.77
2017-11-17T08:59:59.341Z,7.40
2017-11-17T09:02:27.655Z,7.80
2017-11-17T09:04:55.978Z,9.57
2017-11-17T09:07:25.043Z,8.63
2017-11-17T09:09:53.376Z,8.30
2017-11-17T09:12:21.674Z,8.40
2017-11-17T09:14:50.022Z,10.00
2017-11-17T09:17:18.326Z,7.90
2017-11-17T09:19:46.643Z,9.30
2017-11-17T09:22:14.965Z,7.50
2017-11-17T09:24:43.276Z,7.40
2017-11-17T09:27:11.586Z,7.10
2017-11-17T09:29:40.679Z,6.20
2017-11-17T09:32:09.746Z,6.67
2017-11-17T09:34:38.056Z,6.57
2017-11-17T09:37:07.121Z,8.07
2017-11-17T09:39:35.440Z,7.90
2017-11-17T09:42:03.740Z,6.10
2017-11-17T09:44:32.063Z,6.80
2017-11-17T09:47:00.379Z,6.43
2017-11-17T09:49:28.695Z,6.67
2017-11-17T09:51:57.011Z,5.30
2017-11-17T09:54:26.102Z,5.90
2017-11-17T09:56:54.417Z,5.53
2017-11-17T09:59:22.726Z,4.33
2017-11-17T10:01:51.027Z,5.30
2017-11-17T10:04:20.099Z,4.40
2017-11-17T10:06:48.412Z,4.00
2017-11-17T10:09:17.495Z,5.20
2017-11-17T10:11:45.795Z,5.40
2017-11-17T10:14:14.103Z,5.47
2017-11-17T10:16:42.475Z,4.43
2017-11-17T10:19:10.789Z,5.07
2017-11-17T10:21:39.103Z,4.20
2017-11-17T10:24:07.420Z,4.40
2017-11-17T10:26:35.728Z,4.83
2017-11-17T10:29:04.815Z,4.30
2017-11-17T10:31:33.110Z,4.50
2017-11-17T10:34:02.187Z,4.37
2017-11-17T10:36:30.493Z,4.70
2017-11-17T10:38:59.561Z,4.77
2017-11-17T10:41:27.869Z,5.80
2017-11-17T10:43:56.203Z,4.80
2017-11-17T10:46:24.515Z,5.57
2017-11-17T10:48:53.602Z,5.70
2017-11-17T10:51:22.767Z,4.83
2017-11-17T10:53:51.082Z,4.17
2017-11-17T10:56:34.784Z,4.47
2017-11-17T10:59:05.043Z,5.80
2017-11-17T11:01:34.117Z,4.93
2017-11-17T11:04:02.423Z,4.63
2017-11-17T11:06:31.502Z,4.97
2017-11-17T11:08:59.807Z,4.73
2017-11-17T11:11:33.788Z,3.60
2017-11-17T11:14:02.868Z,5.03
2017-11-17T11:16:31.179Z,5.10
2017-11-17T11:19:06.041Z,4.70
2017-11-17T11:21:34.339Z,4.10
2017-11-17T11:24:02.667Z,3.93
2017-11-17T11:26:30.986Z,3.70
2017-11-17T11:28:59.304Z,5.20
2017-11-17T11:31:28.376Z,3.80
2017-11-17T11:33:56.687Z,3.70
2017-11-17T11:36:25.765Z,4.53
2017-11-17T11:38:54.079Z,4.53
2017-11-17T11:41:22.393Z,4.70
2017-11-17T11:43:51.480Z,3.63
2017-11-17T11:46:19.784Z,3.67
2017-11-17T11:48:48.130Z,3.50
2017-11-17T11:51:16.442Z,2.83
2017-11-17T11:53:44.751Z,4.80
2017-11-17T11:56:13.047Z,3.57
2017-11-17T11:58:41.354Z,3.10
2017-11-17T12:01:09.671Z,4.47
2017-11-17T12:03:37.995Z,3.20
2017-11-17T12:06:06.292Z,3.43
2017-11-17T12:08:34.599Z,4.57
2017-11-17T12:11:03.664Z,3.17
2017-11-17T12:13:31.988Z,3.97
2017-11-17T12:16:00.321Z,3.10
2017-11-17T12:18:28.635Z,3.93
2017-11-17T12:20:57.707Z,4.00
2017-11-17T12:23:26.006Z,3.37
2017-11-17T12:25:55.085Z,4.80
2017-11-17T12:28:23.378Z,3.63
2017-11-17T12:30:52.455Z,2.93
2017-11-17T12:33:20.760Z,3.50
2017-11-17T12:35:49.088Z,5.00
2017-11-17T12:38:17.401Z,3.93
2017-11-17T12:40:46.490Z,3.63
2017-11-17T12:43:15.596Z,3.80
2017-11-17T12:45:43.914Z,4.30
2017-11-17T12:48:12.218Z,3.60
2017-11-17T12:50:40.525Z,4.03
2017-11-17T12:53:09.589Z,3.60
2017-11-17T12:55:37.903Z,2.93
2017-11-17T12:58:06.972Z,3.80
2017-11-17T13:00:36.067Z,3.40
2017-11-17T13:03:04.389Z,4.03
2017-11-17T13:05:32.723Z,4.00
2017-11-17T13:08:01.041Z,3.67
2017-11-17T13:10:29.374Z,3.50
2017-11-17T13:12:57.674Z,3.30
2017-11-17T13:15:26.783Z,3.60
2017-11-17T13:17:55.095Z,5.80
2017-11-17T13:20:24.184Z,2.73
2017-11-17T13:22:52.522Z,3.17
2017-11-17T13:25:21.604Z,3.13
2017-11-17T13:27:50.680Z,2.87
2017-11-17T13:30:18.999Z,2.47
2017-11-17T13:32:47.318Z,3.40
2017-11-17T13:35:15.640Z,3.80
2017-11-17T13:37:44.771Z,4.70
2017-11-17T13:40:13.086Z,2.77
2017-11-17T13:42:41.391Z,4.60
2017-11-17T13:45:10.471Z,3.40
2017-11-17T13:47:38.770Z,3.33
2017-11-17T13:50:07.091Z,2.80
2017-11-17T13:52:35.390Z,3.00
2017-11-17T13:55:03.703Z,2.40
2017-11-17T13:57:32.008Z,3.20
2017-11-17T14:00:00.342Z,2.93
2017-11-17T14:02:29.414Z,3.70
2017-11-17T14:04:57.719Z,3.67
2017-11-17T14:07:26.800Z,3.10
2017-11-17T14:09:55.101Z,2.97
2017-11-17T14:12:24.180Z,3.23
2017-11-17T14:14:53.251Z,3.10
2017-11-17T14:17:21.564Z,4.20
2017-11-17T14:19:50.644Z,3.93
2017-11-17T14:22:19.727Z,5.10
2017-11-17T14:24:48.054Z,3.60
2017-11-17T14:27:16.367Z,2.60
2017-11-17T14:29:44.679Z,3.67
2017-11-17T14:32:13.772Z,3.40
2017-11-17T14:34:42.835Z,2.40
2017-11-17T14:37:11.150Z,3.50
2017-11-17T14:39:40.216Z,2.40
2017-11-17T14:42:08.527Z,3.90
2017-11-17T14:44:36.853Z,5.70
2017-11-17T14:47:05.162Z,3.97
2017-11-17T14:49:33.491Z,4.37
2017-11-17T14:52:01.821Z,4.43
2017-11-17T14:54:30.917Z,4.90
2017-11-17T14:57:00.014Z,4.90
2017-11-17T14:59:29.103Z,4.73
2017-11-17T15:01:57.416Z,4.73
2017-11-17T15:04:25.725Z,4.30
2017-11-17T15:06:54.037Z,5.27
2017-11-17T15:09:22.348Z,4.90
2017-11-17T15:14:47.950Z,6.40
2017-11-17T15:17:17.027Z,5.20
2017-11-17T15:22:43.166Z,3.57
2017-11-17T15:25:11.466Z,3.97
2017-11-17T15:27:39.812Z,4.90
2017-11-17T15:30:08.115Z,5.30
2017-11-17T15:32:36.431Z,3.60
2017-11-17T15:35:04.735Z,6.40
2017-11-17T15:37:33.060Z,5.33
2017-11-17T15:40:02.124Z,5.47
2017-11-17T15:42:30.455Z,10.23
2017-11-17T15:44:58.965Z,10.20
2017-11-17T15:47:27.309Z,8.00
2017-11-17T15:49:55.609Z,5.67
2017-11-17T15:52:24.911Z,5.10
2017-11-17T15:54:53.214Z,3.33
2017-11-17T15:57:21.529Z,3.60
2017-11-17T15:59:50.612Z,4.43
2017-11-17T16:02:18.934Z,3.93
2017-11-17T16:04:48.077Z,4.57
2017-11-17T16:07:16.392Z,5.80
2017-11-17T16:09:44.696Z,3.73
2017-11-17T16:12:13.051Z,4.63
2017-11-17T16:14:41.373Z,5.20
2017-11-17T16:17:09.710Z,4.60
2017-11-17T16:19:38.015Z,4.43
2017-11-17T16:22:06.334Z,4.37
2017-11-17T16:24:35.395Z,7.83
2017-11-17T16:27:03.702Z,8.17
2017-11-17T16:29:32.774Z,7.20
2017-11-17T16:32:01.090Z,6.13
2017-11-17T16:34:30.159Z,4.60
2017-11-17T16:39:55.293Z,8.73
2017-11-17T16:42:24.428Z,8.10
2017-11-17T16:44:52.728Z,23.63
2017-11-17T16:47:21.035Z,10.23
2017-11-17T16:49:49.359Z,10.47
2017-11-17T16:52:17.676Z,6.57
2017-11-17T16:54:45.986Z,8.10
2017-11-17T16:57:15.078Z,4.63
2017-11-17T16:59:44.151Z,5.30
2017-11-17T17:02:12.470Z,5.20
2017-11-17T17:04:40.779Z,5.33
2017-11-17T17:07:09.132Z,5.27
2017-11-17T17:09:37.440Z,5.03
2017-11-17T17:12:05.781Z,5.10
2017-11-17T17:14:34.098Z,6.30
2017-11-17T17:17:02.420Z,8.70
2017-11-17T17:19:30.741Z,7.40
2017-11-17T17:21:59.034Z,7.23
2017-11-17T17:24:27.351Z,9.90
2017-11-17T17:26:56.470Z,9.40
2017-11-17T17:29:24.784Z,7.50
2017-11-17T17:31:53.094Z,7.00
2017-11-17T17:34:22.167Z,9.27
2017-11-17T17:36:50.509Z,7.80
2017-11-17T17:39:18.896Z,6.60
2017-11-17T17:41:47.203Z,6.83
2017-11-17T17:44:15.534Z,9.83
2017-11-17T17:46:43.862Z,6.90
2017-11-17T17:49:12.173Z,6.87
2017-11-17T17:51:40.478Z,8.57
2017-11-17T17:54:08.796Z,7.43
2017-11-17T17:56:37.112Z,7.10
2017-11-17T17:59:05.411Z,6.70
2017-11-17T18:01:33.739Z,8.10
2017-11-17T18:04:02.048Z,6.70
2017-11-17T18:06:30.354Z,7.47
2017-11-17T18:08:58.657Z,7.20
2017-11-17T18:11:26.981Z,8.10
2017-11-17T18:13:55.278Z,9.10
2017-11-17T18:16:23.587Z,7.70
2017-11-17T18:18:51.896Z,9.87
2017-11-17T18:21:20.970Z,8.70
2017-11-17T18:23:50.051Z,10.60
2017-11-17T18:26:18.426Z,8.83
2017-11-17T18:28:46.748Z,11.90
2017-11-17T18:31:15.031Z,11.00
2017-11-17T18:33:43.365Z,10.90
2017-11-17T18:36:11.721Z,12.37
2017-11-17T18:38:40.143Z,9.90
2017-11-17T18:41:08.475Z,11.93
2017-11-17T18:43:36.814Z,13.50
2017-11-17T18:46:05.125Z,13.67
2017-11-17T18:48:33.482Z,12.43
2017-11-17T18:51:01.775Z,11.47
2017-11-17T18:53:30.101Z,11.93
2017-11-17T18:55:58.435Z,12.80
2017-11-17T18:58:29.241Z,12.27
2017-11-17T19:00:57.580Z,11.40
2017-11-17T19:03:25.907Z,14.50
2017-11-17T19:05:54.203Z,14.40
2017-11-17T19:08:22.583Z,16.97
2017-11-17T19:10:50.850Z,15.70
2017-11-17T19:13:19.194Z,18.37
2017-11-17T19:15:48.263Z,20.83
2017-11-17T19:18:16.574Z,19.30
2017-11-17T19:20:44.884Z,18.03
2017-11-17T19:23:13.219Z,16.67
2017-11-17T19:25:42.287Z,16.43
2017-11-17T19:28:10.645Z,18.50
2017-11-17T19:30:38.998Z,18.10
2017-11-17T19:33:07.375Z,17.67
2017-11-17T19:35:35.673Z,18.47
2017-11-17T19:38:04.028Z,17.53
2017-11-17T19:40:32.335Z,15.67
2017-11-17T19:43:00.666Z,19.20
2017-11-17T19:45:28.965Z,18.77
2017-11-17T19:47:57.337Z,18.50
2017-11-17T19:50:25.647Z,22.50
2017-11-17T19:52:54.011Z,21.10
2017-11-17T19:55:22.336Z,18.70
2017-11-17T19:57:52.161Z,19.37
2017-11-17T20:00:21.260Z,17.13
2017-11-17T20:02:50.354Z,21.20
2017-11-17T20:05:20.113Z,18.50
2017-11-17T20:07:48.444Z,21.10
2017-11-17T20:10:17.540Z,18.70
2017-11-17T20:12:46.623Z,17.30
2017-11-17T20:15:15.758Z,18.97
2017-11-17T20:17:44.071Z,19.10
2017-11-17T20:20:12.375Z,19.50
2017-11-17T20:22:41.494Z,17.63
2017-11-17T20:25:09.811Z,18.97
2017-11-17T20:27:38.136Z,17.20
2017-11-17T20:30:07.212Z,18.83
2017-11-17T20:32:35.535Z,17.90
2017-11-17T20:35:03.849Z,16.97
2017-11-17T20:37:32.160Z,15.60
2017-11-17T20:40:01.242Z,16.80
2017-11-17T20:42:29.546Z,16.67
2017-11-17T20:44:57.859Z,16.40
2017-11-17T20:47:26.183Z,14.53
2017-11-17T20:49:55.336Z,15.43
2017-11-17T20:52:23.658Z,15.37
2017-11-17T20:54:52.751Z,15.20
2017-11-17T20:57:21.869Z,16.63
2017-11-17T20:59:50.184Z,15.80
2017-11-17T21:02:18.504Z,15.77
2017-11-17T21:04:47.632Z,15.10
2017-11-17T21:07:15.969Z,13.33
2017-11-17T21:09:45.107Z,14.20
2017-11-17T21:12:13.489Z,15.37
2017-11-17T21:14:41.815Z,13.87
2017-11-17T21:17:10.129Z,14.07
2017-11-17T21:19:38.486Z,13.33
2017-11-17T21:22:07.597Z,12.50
2017-11-17T21:24:35.898Z,13.33
2017-11-17T21:27:04.204Z,12.03
2017-11-17T21:29:32.510Z,13.60
2017-11-17T21:32:01.590Z,13.77
2017-11-17T21:34:29.962Z,12.50
2017-11-17T21:36:58.284Z,13.30
2017-11-17T21:39:26.599Z,13.30
2017-11-17T21:41:54.930Z,12.20
2017-11-17T21:44:23.251Z,10.20
2017-11-17T21:46:52.348Z,12.70
2017-11-17T21:49:20.644Z,13.00
2017-11-17T21:51:48.973Z,10.77
2017-11-17T21:54:17.274Z,11.27
2017-11-17T21:56:45.597Z,10.67
2017-11-17T21:59:14.676Z,9.40
2017-11-17T22:01:43.016Z,10.50
2017-11-17T22:04:11.338Z,9.53
2017-11-17T22:06:39.742Z,10.67
2017-11-17T22:09:08.168Z,10.30
2017-11-17T22:11:36.480Z,9.60
2017-11-17T22:14:05.557Z,9.80
2017-11-17T22:16:33.878Z,9.73
2017-11-17T22:19:02.194Z,9.27
2017-11-17T22:21:30.529Z,8.63
2017-11-17T22:23:58.831Z,7.87
2017-11-17T22:26:27.152Z,8.60
2017-11-17T22:28:55.485Z,7.67
2017-11-17T22:31:23.823Z,7.83
2017-11-17T22:33:52.885Z,8.30
2017-11-17T22:36:21.207Z,8.07
2017-11-17T22:38:49.509Z,7.57
2017-11-17T22:41:17.815Z,8.27
2017-11-17T22:43:46.123Z,7.23
2017-11-17T22:46:15.203Z,7.83
2017-11-17T22:48:43.518Z,7.50
2017-11-17T22:51:11.810Z,7.33
2017-11-17T22:53:40.119Z,8.23
2017-11-17T22:56:08.426Z,9.50
2017-11-17T22:58:37.519Z,8.60
2017-11-17T23:01:06.635Z,8.17
2017-11-17T23:03:34.966Z,7.10
2017-11-17T23:06:03.279Z,8.80
2017-11-17T23:08:32.403Z,6.90
2017-11-17T23:11:00.726Z,6.83
2017-11-17T23:13:29.062Z,6.87
2017-11-17T23:15:57.371Z,6.97
2017-11-17T23:18:25.715Z,6.73
2017-11-17T23:20:54.069Z,7.87
2017-11-17T23:23:22.386Z,7.73
2017-11-17T23:25:50.681Z,6.90
2017-11-17T23:28:18.990Z,7.33
2017-11-17T23:30:48.061Z,6.23
2017-11-17T23:33:16.380Z,6.53
2017-11-17T23:35:44.695Z,7.47
2017-11-17T23:38:13.035Z,7.00
2017-11-17T23:40:41.370Z,7.43
2017-11-17T23:43:09.688Z,6.60
2017-11-17T23:45:38.759Z,6.80
2017-11-17T23:48:07.071Z,6.97
2017-11-17T23:50:35.382Z,7.37
2017-11-17T23:53:03.711Z,7.17
2017-11-17T23:55:32.782Z,7.10
2017-11-17T23:58:01.106Z,6.37
